Tucumcari, New Mexico
Current Conditions -  °F | °C
As of 11:53 PM on Wednesday 22 Oct 2014 (Local Time) from KTCC Reporting Station
Clear Clear  
Wind Chill: 61°   Ceiling: Unl
Heat Index: 61°   Visibility: 10mi
Dew Point: 54°   Wind: 9mph
Humidity: 78%   Direction: 200°SSW
Pressure: 30.1"   Gusts: NA
Location:  35.18°N, 103.72°W
Report Text: KTCC 230553Z AUTO 20008KT 10SM CLR 16/12 A3010 RMK AO2 SLP144 60007 T01610122 10206 20161 51007
Loading
Personal Weather Stations






























Interactive Weather Map
Tropical Storm Tracking
New forecast layout! Learn more

10-Day Weather Forecast

Advertisements
Track Severe Weather on mobile